sensor_id;sensor_type;location;lat;lon;timestamp;P1;durP1;ratioP1;P2;durP2;ratioP2
17987;SDS011;9119;50.932;5.342;2022-07-18T00:01:52;5.83;;;1.97;;
17987;SDS011;9119;50.932;5.342;2022-07-18T00:04:19;8.73;;;2.60;;
17987;SDS011;9119;50.932;5.342;2022-07-18T00:06:44;7.67;;;2.53;;
17987;SDS011;9119;50.932;5.342;2022-07-18T00:09:10;8.77;;;2.63;;
17987;SDS011;9119;50.932;5.342;2022-07-18T00:11:36;8.03;;;2.30;;
17987;SDS011;9119;50.932;5.342;2022-07-18T00:14:02;11.47;;;2.40;;
17987;SDS011;9119;50.932;5.342;2022-07-18T00:16:27;12.13;;;3.03;;
17987;SDS011;9119;50.932;5.342;2022-07-18T00:18:54;6.53;;;2.33;;
17987;SDS011;9119;50.932;5.342;2022-07-18T00:21:20;6.13;;;2.47;;
17987;SDS011;9119;50.932;5.342;2022-07-18T00:23:45;4.27;;;2.23;;
17987;SDS011;9119;50.932;5.342;2022-07-18T00:26:11;6.70;;;2.13;;
17987;SDS011;9119;50.932;5.342;2022-07-18T00:28:37;5.93;;;1.90;;
17987;SDS011;9119;50.932;5.342;2022-07-18T00:31:02;5.97;;;2.30;;
17987;SDS011;9119;50.932;5.342;2022-07-18T00:33:28;2.70;;;1.50;;
17987;SDS011;9119;50.932;5.342;2022-07-18T00:35:54;6.97;;;2.30;;
17987;SDS011;9119;50.932;5.342;2022-07-18T00:38:19;10.40;;;2.93;;
17987;SDS011;9119;50.932;5.342;2022-07-18T00:40:45;9.33;;;2.27;;
17987;SDS011;9119;50.932;5.342;2022-07-18T00:43:14;7.00;;;2.50;;
17987;SDS011;9119;50.932;5.342;2022-07-18T00:45:43;4.77;;;2.00;;
17987;SDS011;9119;50.932;5.342;2022-07-18T00:48:13;6.70;;;2.10;;
17987;SDS011;9119;50.932;5.342;2022-07-18T00:50:39;5.57;;;2.17;;
17987;SDS011;9119;50.932;5.342;2022-07-18T00:53:06;11.77;;;2.53;;
17987;SDS011;9119;50.932;5.342;2022-07-18T00:55:33;5.97;;;2.03;;
17987;SDS011;9119;50.932;5.342;2022-07-18T00:57:59;5.37;;;2.30;;
17987;SDS011;9119;50.932;5.342;2022-07-18T01:00:25;5.80;;;2.27;;
17987;SDS011;9119;50.932;5.342;2022-07-18T01:03:09;4.83;;;1.97;;
17987;SDS011;9119;50.932;5.342;2022-07-18T01:05:35;4.90;;;2.10;;
17987;SDS011;9119;50.932;5.342;2022-07-18T01:08:01;3.93;;;1.93;;
17987;SDS011;9119;50.932;5.342;2022-07-18T01:10:27;6.20;;;2.33;;
17987;SDS011;9119;50.932;5.342;2022-07-18T01:12:53;8.83;;;2.00;;
17987;SDS011;9119;50.932;5.342;2022-07-18T01:15:18;7.20;;;2.50;;
17987;SDS011;9119;50.932;5.342;2022-07-18T01:17:44;6.43;;;2.40;;
17987;SDS011;9119;50.932;5.342;2022-07-18T01:20:10;6.43;;;2.20;;
17987;SDS011;9119;50.932;5.342;2022-07-18T01:22:36;7.50;;;2.30;;
17987;SDS011;9119;50.932;5.342;2022-07-18T01:25:04;8.23;;;2.30;;
17987;SDS011;9119;50.932;5.342;2022-07-18T01:27:30;12.10;;;2.70;;
17987;SDS011;9119;50.932;5.342;2022-07-18T01:29:56;6.63;;;2.30;;
17987;SDS011;9119;50.932;5.342;2022-07-18T01:32:22;6.07;;;2.53;;
17987;SDS011;9119;50.932;5.342;2022-07-18T01:34:48;4.40;;;2.30;;
17987;SDS011;9119;50.932;5.342;2022-07-18T01:37:14;6.70;;;2.70;;
17987;SDS011;9119;50.932;5.342;2022-07-18T01:39:40;7.67;;;2.40;;
17987;SDS011;9119;50.932;5.342;2022-07-18T01:42:07;8.27;;;2.43;;
17987;SDS011;9119;50.932;5.342;2022-07-18T01:44:35;6.13;;;2.13;;
17987;SDS011;9119;50.932;5.342;2022-07-18T01:47:02;8.20;;;2.60;;
17987;SDS011;9119;50.932;5.342;2022-07-18T01:49:29;2.83;;;2.00;;
17987;SDS011;9119;50.932;5.342;2022-07-18T01:51:55;8.57;;;2.47;;
17987;SDS011;9119;50.932;5.342;2022-07-18T01:54:22;6.13;;;2.30;;
17987;SDS011;9119;50.932;5.342;2022-07-18T01:56:49;7.13;;;2.20;;
17987;SDS011;9119;50.932;5.342;2022-07-18T01:59:15;4.80;;;2.23;;
17987;SDS011;9119;50.932;5.342;2022-07-18T02:01:41;4.87;;;2.43;;
17987;SDS011;9119;50.932;5.342;2022-07-18T02:04:08;6.83;;;2.53;;
17987;SDS011;9119;50.932;5.342;2022-07-18T02:06:33;7.50;;;2.10;;
17987;SDS011;9119;50.932;5.342;2022-07-18T02:08:59;4.50;;;2.53;;
17987;SDS011;9119;50.932;5.342;2022-07-18T02:11:24;11.93;;;2.80;;
17987;SDS011;9119;50.932;5.342;2022-07-18T02:13:51;8.47;;;2.77;;
17987;SDS011;9119;50.932;5.342;2022-07-18T02:16:17;4.50;;;2.43;;
17987;SDS011;9119;50.932;5.342;2022-07-18T02:18:42;5.70;;;2.23;;
17987;SDS011;9119;50.932;5.342;2022-07-18T02:21:08;6.50;;;2.50;;
17987;SDS011;9119;50.932;5.342;2022-07-18T02:23:34;7.23;;;2.40;;
17987;SDS011;9119;50.932;5.342;2022-07-18T02:26:00;7.30;;;2.33;;
17987;SDS011;9119;50.932;5.342;2022-07-18T02:28:26;6.97;;;2.60;;
17987;SDS011;9119;50.932;5.342;2022-07-18T02:30:52;6.97;;;2.30;;
17987;SDS011;9119;50.932;5.342;2022-07-18T02:33:18;6.73;;;2.47;;
17987;SDS011;9119;50.932;5.342;2022-07-18T02:35:44;7.43;;;2.57;;
17987;SDS011;9119;50.932;5.342;2022-07-18T02:38:10;8.27;;;2.70;;
17987;SDS011;9119;50.932;5.342;2022-07-18T02:40:35;8.37;;;2.90;;
17987;SDS011;9119;50.932;5.342;2022-07-18T02:43:01;8.40;;;2.37;;
17987;SDS011;9119;50.932;5.342;2022-07-18T02:45:27;10.63;;;2.63;;
17987;SDS011;9119;50.932;5.342;2022-07-18T02:47:53;7.57;;;2.40;;
17987;SDS011;9119;50.932;5.342;2022-07-18T02:50:18;9.10;;;3.00;;
17987;SDS011;9119;50.932;5.342;2022-07-18T02:52:44;8.23;;;2.70;;
17987;SDS011;9119;50.932;5.342;2022-07-18T02:55:10;8.53;;;2.80;;
17987;SDS011;9119;50.932;5.342;2022-07-18T02:57:38;9.23;;;2.70;;
17987;SDS011;9119;50.932;5.342;2022-07-18T03:00:04;9.93;;;2.70;;
17987;SDS011;9119;50.932;5.342;2022-07-18T03:02:32;6.37;;;2.90;;
17987;SDS011;9119;50.932;5.342;2022-07-18T03:04:57;7.07;;;2.53;;
17987;SDS011;9119;50.932;5.342;2022-07-18T03:07:23;11.83;;;2.80;;
17987;SDS011;9119;50.932;5.342;2022-07-18T03:09:49;6.20;;;2.77;;
17987;SDS011;9119;50.932;5.342;2022-07-18T03:12:14;6.40;;;2.80;;
17987;SDS011;9119;50.932;5.342;2022-07-18T03:14:40;11.80;;;3.20;;
17987;SDS011;9119;50.932;5.342;2022-07-18T03:17:06;13.83;;;3.40;;
17987;SDS011;9119;50.932;5.342;2022-07-18T03:19:31;7.50;;;3.50;;
17987;SDS011;9119;50.932;5.342;2022-07-18T03:21:57;9.63;;;3.00;;
17987;SDS011;9119;50.932;5.342;2022-07-18T03:24:23;9.53;;;3.23;;
17987;SDS011;9119;50.932;5.342;2022-07-18T03:26:49;8.23;;;3.07;;
17987;SDS011;9119;50.932;5.342;2022-07-18T03:29:15;12.03;;;3.33;;
17987;SDS011;9119;50.932;5.342;2022-07-18T03:31:41;12.43;;;3.27;;
17987;SDS011;9119;50.932;5.342;2022-07-18T03:34:06;11.03;;;3.47;;
17987;SDS011;9119;50.932;5.342;2022-07-18T03:36:32;10.10;;;3.23;;
17987;SDS011;9119;50.932;5.342;2022-07-18T03:38:58;15.03;;;3.70;;
17987;SDS011;9119;50.932;5.342;2022-07-18T03:41:24;11.50;;;3.63;;
17987;SDS011;9119;50.932;5.342;2022-07-18T03:43:49;13.47;;;2.93;;
17987;SDS011;9119;50.932;5.342;2022-07-18T03:46:15;7.07;;;3.17;;
17987;SDS011;9119;50.932;5.342;2022-07-18T03:48:40;8.33;;;3.90;;
17987;SDS011;9119;50.932;5.342;2022-07-18T03:51:06;7.33;;;3.70;;
17987;SDS011;9119;50.932;5.342;2022-07-18T03:53:32;12.83;;;3.73;;
17987;SDS011;9119;50.932;5.342;2022-07-18T03:55:58;10.83;;;3.67;;
17987;SDS011;9119;50.932;5.342;2022-07-18T03:58:24;12.83;;;4.20;;
17987;SDS011;9119;50.932;5.342;2022-07-18T04:00:50;14.63;;;4.00;;
17987;SDS011;9119;50.932;5.342;2022-07-18T04:03:16;9.93;;;4.17;;
17987;SDS011;9119;50.932;5.342;2022-07-18T04:05:43;9.90;;;3.80;;
17987;SDS011;9119;50.932;5.342;2022-07-18T04:08:09;9.50;;;3.50;;
17987;SDS011;9119;50.932;5.342;2022-07-18T04:10:35;11.80;;;4.10;;
17987;SDS011;9119;50.932;5.342;2022-07-18T04:13:04;14.70;;;4.13;;
17987;SDS011;9119;50.932;5.342;2022-07-18T04:15:31;18.70;;;4.03;;
17987;SDS011;9119;50.932;5.342;2022-07-18T04:17:57;9.40;;;3.80;;
17987;SDS011;9119;50.932;5.342;2022-07-18T04:20:22;10.40;;;4.33;;
17987;SDS011;9119;50.932;5.342;2022-07-18T04:25:18;11.10;;;3.97;;
17987;SDS011;9119;50.932;5.342;2022-07-18T04:27:45;10.60;;;4.23;;
17987;SDS011;9119;50.932;5.342;2022-07-18T04:30:12;13.43;;;4.50;;
17987;SDS011;9119;50.932;5.342;2022-07-18T04:32:40;10.87;;;4.40;;
17987;SDS011;9119;50.932;5.342;2022-07-18T04:35:07;10.70;;;4.23;;
17987;SDS011;9119;50.932;5.342;2022-07-18T04:37:33;15.67;;;4.00;;
17987;SDS011;9119;50.932;5.342;2022-07-18T04:40:00;12.43;;;4.57;;
17987;SDS011;9119;50.932;5.342;2022-07-18T04:42:26;19.40;;;4.43;;
17987;SDS011;9119;50.932;5.342;2022-07-18T04:44:52;14.13;;;4.27;;
17987;SDS011;9119;50.932;5.342;2022-07-18T04:47:18;12.33;;;4.00;;
17987;SDS011;9119;50.932;5.342;2022-07-18T04:49:43;7.70;;;4.20;;
17987;SDS011;9119;50.932;5.342;2022-07-18T04:52:09;10.93;;;4.50;;
17987;SDS011;9119;50.932;5.342;2022-07-18T04:54:35;10.13;;;4.17;;
17987;SDS011;9119;50.932;5.342;2022-07-18T04:57:00;15.37;;;4.90;;
17987;SDS011;9119;50.932;5.342;2022-07-18T04:59:26;11.93;;;4.53;;
17987;SDS011;9119;50.932;5.342;2022-07-18T05:01:52;14.10;;;4.37;;
17987;SDS011;9119;50.932;5.342;2022-07-18T05:04:17;14.63;;;4.50;;
17987;SDS011;9119;50.932;5.342;2022-07-18T05:06:43;10.70;;;5.00;;
17987;SDS011;9119;50.932;5.342;2022-07-18T05:09:09;11.87;;;4.37;;
17987;SDS011;9119;50.932;5.342;2022-07-18T05:11:34;11.10;;;4.23;;
17987;SDS011;9119;50.932;5.342;2022-07-18T05:14:00;11.23;;;4.47;;
17987;SDS011;9119;50.932;5.342;2022-07-18T05:16:26;9.07;;;4.20;;
17987;SDS011;9119;50.932;5.342;2022-07-18T05:18:52;16.70;;;4.43;;
17987;SDS011;9119;50.932;5.342;2022-07-18T05:21:17;14.50;;;4.43;;
17987;SDS011;9119;50.932;5.342;2022-07-18T05:23:43;14.37;;;4.20;;
17987;SDS011;9119;50.932;5.342;2022-07-18T05:26:10;15.63;;;4.53;;
17987;SDS011;9119;50.932;5.342;2022-07-18T05:28:36;9.03;;;4.40;;
17987;SDS011;9119;50.932;5.342;2022-07-18T05:31:02;16.47;;;4.70;;
17987;SDS011;9119;50.932;5.342;2022-07-18T05:33:28;13.43;;;4.17;;
17987;SDS011;9119;50.932;5.342;2022-07-18T05:35:53;9.03;;;3.80;;
17987;SDS011;9119;50.932;5.342;2022-07-18T05:38:19;13.90;;;4.40;;
17987;SDS011;9119;50.932;5.342;2022-07-18T05:40:45;10.83;;;4.00;;
17987;SDS011;9119;50.932;5.342;2022-07-18T05:43:11;15.80;;;4.03;;
17987;SDS011;9119;50.932;5.342;2022-07-18T05:45:36;11.43;;;3.93;;
17987;SDS011;9119;50.932;5.342;2022-07-18T05:48:02;12.30;;;3.80;;
17987;SDS011;9119;50.932;5.342;2022-07-18T05:50:28;9.93;;;3.23;;
17987;SDS011;9119;50.932;5.342;2022-07-18T05:52:54;12.77;;;4.03;;
17987;SDS011;9119;50.932;5.342;2022-07-18T05:55:20;11.47;;;3.53;;
17987;SDS011;9119;50.932;5.342;2022-07-18T05:57:46;8.77;;;3.83;;
17987;SDS011;9119;50.932;5.342;2022-07-18T06:00:12;18.37;;;4.20;;
17987;SDS011;9119;50.932;5.342;2022-07-18T06:02:39;13.37;;;3.60;;
17987;SDS011;9119;50.932;5.342;2022-07-18T06:05:05;18.23;;;4.07;;
17987;SDS011;9119;50.932;5.342;2022-07-18T06:07:32;10.67;;;3.50;;
17987;SDS011;9119;50.932;5.342;2022-07-18T06:09:58;19.53;;;3.70;;
17987;SDS011;9119;50.932;5.342;2022-07-18T06:12:23;10.70;;;3.57;;
17987;SDS011;9119;50.932;5.342;2022-07-18T06:14:50;9.03;;;3.43;;
17987;SDS011;9119;50.932;5.342;2022-07-18T06:17:16;10.47;;;4.20;;
17987;SDS011;9119;50.932;5.342;2022-07-18T06:19:41;9.23;;;3.43;;
17987;SDS011;9119;50.932;5.342;2022-07-18T06:22:07;10.00;;;3.70;;
17987;SDS011;9119;50.932;5.342;2022-07-18T06:24:34;10.00;;;3.07;;
17987;SDS011;9119;50.932;5.342;2022-07-18T06:26:59;11.77;;;3.43;;
17987;SDS011;9119;50.932;5.342;2022-07-18T06:29:26;11.07;;;3.33;;
17987;SDS011;9119;50.932;5.342;2022-07-18T06:31:52;8.73;;;3.10;;
17987;SDS011;9119;50.932;5.342;2022-07-18T06:34:18;8.37;;;3.00;;
17987;SDS011;9119;50.932;5.342;2022-07-18T06:36:43;7.37;;;3.10;;
17987;SDS011;9119;50.932;5.342;2022-07-18T06:39:09;9.77;;;3.23;;
17987;SDS011;9119;50.932;5.342;2022-07-18T06:41:39;11.83;;;3.00;;
17987;SDS011;9119;50.932;5.342;2022-07-18T06:44:05;11.47;;;2.90;;
17987;SDS011;9119;50.932;5.342;2022-07-18T06:46:31;8.17;;;2.93;;
17987;SDS011;9119;50.932;5.342;2022-07-18T06:48:57;8.57;;;2.53;;
17987;SDS011;9119;50.932;5.342;2022-07-18T06:51:22;7.80;;;3.27;;
17987;SDS011;9119;50.932;5.342;2022-07-18T06:53:49;10.33;;;3.50;;
17987;SDS011;9119;50.932;5.342;2022-07-18T06:56:16;8.63;;;2.67;;
17987;SDS011;9119;50.932;5.342;2022-07-18T06:58:42;12.00;;;2.70;;
17987;SDS011;9119;50.932;5.342;2022-07-18T07:01:13;8.33;;;2.70;;
17987;SDS011;9119;50.932;5.342;2022-07-18T07:03:39;8.33;;;2.47;;
17987;SDS011;9119;50.932;5.342;2022-07-18T07:06:05;6.40;;;2.13;;
17987;SDS011;9119;50.932;5.342;2022-07-18T07:08:31;12.53;;;2.40;;
17987;SDS011;9119;50.932;5.342;2022-07-18T07:10:56;9.47;;;2.63;;
17987;SDS011;9119;50.932;5.342;2022-07-18T07:13:22;7.37;;;2.47;;
17987;SDS011;9119;50.932;5.342;2022-07-18T07:15:48;9.30;;;2.43;;
17987;SDS011;9119;50.932;5.342;2022-07-18T07:18:14;7.80;;;2.40;;
17987;SDS011;9119;50.932;5.342;2022-07-18T07:20:39;10.17;;;2.00;;
17987;SDS011;9119;50.932;5.342;2022-07-18T07:23:05;5.20;;;2.27;;
17987;SDS011;9119;50.932;5.342;2022-07-18T07:25:33;5.80;;;2.23;;
17987;SDS011;9119;50.932;5.342;2022-07-18T07:27:59;10.13;;;2.20;;
17987;SDS011;9119;50.932;5.342;2022-07-18T07:30:25;5.80;;;2.33;;
17987;SDS011;9119;50.932;5.342;2022-07-18T07:32:51;11.97;;;2.23;;
17987;SDS011;9119;50.932;5.342;2022-07-18T07:35:17;12.47;;;2.67;;
17987;SDS011;9119;50.932;5.342;2022-07-18T07:37:45;6.77;;;2.23;;
17987;SDS011;9119;50.932;5.342;2022-07-18T07:40:12;6.13;;;2.33;;
17987;SDS011;9119;50.932;5.342;2022-07-18T07:42:39;7.40;;;2.10;;
17987;SDS011;9119;50.932;5.342;2022-07-18T07:45:04;6.30;;;2.00;;
17987;SDS011;9119;50.932;5.342;2022-07-18T07:47:31;6.47;;;1.80;;
17987;SDS011;9119;50.932;5.342;2022-07-18T07:49:56;8.63;;;2.47;;
17987;SDS011;9119;50.932;5.342;2022-07-18T07:52:24;8.27;;;2.10;;
17987;SDS011;9119;50.932;5.342;2022-07-18T07:54:50;8.83;;;2.10;;
17987;SDS011;9119;50.932;5.342;2022-07-18T07:57:16;6.97;;;1.80;;
17987;SDS011;9119;50.932;5.342;2022-07-18T07:59:42;9.87;;;2.30;;
17987;SDS011;9119;50.932;5.342;2022-07-18T08:02:08;10.07;;;2.50;;
17987;SDS011;9119;50.932;5.342;2022-07-18T08:04:34;9.20;;;2.10;;
17987;SDS011;9119;50.932;5.342;2022-07-18T08:06:59;11.60;;;2.27;;
17987;SDS011;9119;50.932;5.342;2022-07-18T08:09:25;7.37;;;2.00;;
17987;SDS011;9119;50.932;5.342;2022-07-18T08:11:51;8.60;;;2.50;;
17987;SDS011;9119;50.932;5.342;2022-07-18T08:14:17;4.40;;;1.67;;
17987;SDS011;9119;50.932;5.342;2022-07-18T08:16:42;6.07;;;1.87;;
17987;SDS011;9119;50.932;5.342;2022-07-18T08:19:08;7.80;;;2.03;;
17987;SDS011;9119;50.932;5.342;2022-07-18T08:21:34;7.03;;;1.83;;
17987;SDS011;9119;50.932;5.342;2022-07-18T08:24:00;5.63;;;1.60;;
17987;SDS011;9119;50.932;5.342;2022-07-18T08:26:25;5.27;;;1.60;;
17987;SDS011;9119;50.932;5.342;2022-07-18T08:28:51;8.27;;;1.80;;
17987;SDS011;9119;50.932;5.342;2022-07-18T08:31:17;5.53;;;2.27;;
17987;SDS011;9119;50.932;5.342;2022-07-18T08:33:47;4.50;;;1.87;;
17987;SDS011;9119;50.932;5.342;2022-07-18T08:36:13;17.03;;;2.27;;
17987;SDS011;9119;50.932;5.342;2022-07-18T08:38:38;8.33;;;1.90;;
17987;SDS011;9119;50.932;5.342;2022-07-18T08:41:04;6.33;;;1.60;;
17987;SDS011;9119;50.932;5.342;2022-07-18T08:43:30;8.73;;;1.53;;
17987;SDS011;9119;50.932;5.342;2022-07-18T08:46:05;5.03;;;1.30;;
17987;SDS011;9119;50.932;5.342;2022-07-18T08:48:31;3.80;;;1.17;;
17987;SDS011;9119;50.932;5.342;2022-07-18T08:50:58;3.20;;;1.60;;
17987;SDS011;9119;50.932;5.342;2022-07-18T08:53:26;3.87;;;1.80;;
17987;SDS011;9119;50.932;5.342;2022-07-18T08:55:52;7.03;;;1.97;;
17987;SDS011;9119;50.932;5.342;2022-07-18T08:58:18;9.83;;;3.60;;
17987;SDS011;9119;50.932;5.342;2022-07-18T09:00:44;11.53;;;3.20;;
17987;SDS011;9119;50.932;5.342;2022-07-18T09:03:10;2.07;;;1.40;;
17987;SDS011;9119;50.932;5.342;2022-07-18T09:05:38;9.93;;;2.77;;
17987;SDS011;9119;50.932;5.342;2022-07-18T09:10:43;16.23;;;2.30;;
17987;SDS011;9119;50.932;5.342;2022-07-18T09:13:22;6.17;;;1.80;;
17987;SDS011;9119;50.932;5.342;2022-07-18T09:15:59;7.90;;;1.40;;
17987;SDS011;9119;50.932;5.342;2022-07-18T09:18:31;4.10;;;1.83;;
17987;SDS011;9119;50.932;5.342;2022-07-18T09:21:02;8.77;;;2.10;;
17987;SDS011;9119;50.932;5.342;2022-07-18T09:23:31;6.20;;;2.20;;
17987;SDS011;9119;50.932;5.342;2022-07-18T09:25:58;7.77;;;2.00;;
17987;SDS011;9119;50.932;5.342;2022-07-18T09:28:28;4.90;;;1.70;;
17987;SDS011;9119;50.932;5.342;2022-07-18T09:30:54;12.00;;;1.85;;
17987;SDS011;9119;50.932;5.342;2022-07-18T09:33:20;5.15;;;1.50;;
17987;SDS011;9119;50.932;5.342;2022-07-18T09:38:21;6.07;;;1.92;;
17987;SDS011;9119;50.932;5.342;2022-07-18T09:40:48;6.70;;;1.80;;
17987;SDS011;9119;50.932;5.342;2022-07-18T09:43:16;15.05;;;2.47;;
17987;SDS011;9119;50.932;5.342;2022-07-18T09:48:13;5.63;;;1.30;;
17987;SDS011;9119;50.932;5.342;2022-07-18T09:50:54;7.72;;;1.52;;
17987;SDS011;9119;50.932;5.342;2022-07-18T09:53:21;5.68;;;1.50;;
17987;SDS011;9119;50.932;5.342;2022-07-18T09:55:54;2.67;;;1.45;;
17987;SDS011;9119;50.932;5.342;2022-07-18T09:58:23;4.22;;;1.65;;
17987;SDS011;9119;50.932;5.342;2022-07-18T10:00:54;9.52;;;3.20;;
17987;SDS011;9119;50.932;5.342;2022-07-18T10:03:22;2.80;;;1.50;;
17987;SDS011;9119;50.932;5.342;2022-07-18T10:05:49;2.25;;;1.40;;
17987;SDS011;9119;50.932;5.342;2022-07-18T10:08:17;4.75;;;1.60;;
17987;SDS011;9119;50.932;5.342;2022-07-18T10:10:44;3.78;;;1.50;;
17987;SDS011;9119;50.932;5.342;2022-07-18T10:13:12;3.53;;;1.40;;
17987;SDS011;9119;50.932;5.342;2022-07-18T10:15:39;4.95;;;1.58;;
17987;SDS011;9119;50.932;5.342;2022-07-18T10:18:08;2.65;;;1.60;;
17987;SDS011;9119;50.932;5.342;2022-07-18T10:31:28;5.97;;;1.63;;
17987;SDS011;9119;50.932;5.342;2022-07-18T10:34:32;8.25;;;1.75;;
17987;SDS011;9119;50.932;5.342;2022-07-18T10:39:33;5.30;;;1.80;;
17987;SDS011;9119;50.932;5.342;2022-07-18T10:57:27;4.63;;;1.55;;
17987;SDS011;9119;50.932;5.342;2022-07-18T11:02:38;3.00;;;1.48;;
17987;SDS011;9119;50.932;5.342;2022-07-18T11:05:33;4.15;;;1.20;;
17987;SDS011;9119;50.932;5.342;2022-07-18T11:23:58;4.35;;;1.60;;
17987;SDS011;9119;50.932;5.342;2022-07-18T11:26:25;4.53;;;1.60;;
17987;SDS011;9119;50.932;5.342;2022-07-18T11:29:04;1.95;;;1.20;;
17987;SDS011;9119;50.932;5.342;2022-07-18T11:31:32;7.80;;;1.50;;
17987;SDS011;9119;50.932;5.342;2022-07-18T11:34:08;4.13;;;1.60;;
17987;SDS011;9119;50.932;5.342;2022-07-18T11:36:34;7.82;;;1.83;;
17987;SDS011;9119;50.932;5.342;2022-07-18T11:39:03;8.02;;;1.50;;
17987;SDS011;9119;50.932;5.342;2022-07-18T11:41:29;5.45;;;1.65;;
17987;SDS011;9119;50.932;5.342;2022-07-18T11:43:55;2.60;;;1.40;;
17987;SDS011;9119;50.932;5.342;2022-07-18T11:46:22;5.82;;;1.55;;
17987;SDS011;9119;50.932;5.342;2022-07-18T11:48:57;2.60;;;1.60;;
17987;SDS011;9119;50.932;5.342;2022-07-18T11:51:35;5.05;;;1.42;;
17987;SDS011;9119;50.932;5.342;2022-07-18T11:54:02;4.65;;;1.48;;
17987;SDS011;9119;50.932;5.342;2022-07-18T11:56:28;6.13;;;1.83;;
17987;SDS011;9119;50.932;5.342;2022-07-18T11:58:54;1.85;;;1.30;;
17987;SDS011;9119;50.932;5.342;2022-07-18T12:01:21;4.30;;;1.70;;
17987;SDS011;9119;50.932;5.342;2022-07-18T12:03:48;3.35;;;1.70;;
17987;SDS011;9119;50.932;5.342;2022-07-18T12:06:21;4.30;;;1.50;;
17987;SDS011;9119;50.932;5.342;2022-07-18T12:08:49;20.63;;;3.60;;
17987;SDS011;9119;50.932;5.342;2022-07-18T12:16:47;4.30;;;1.30;;
17987;SDS011;9119;50.932;5.342;2022-07-18T12:19:17;4.80;;;1.52;;
17987;SDS011;9119;50.932;5.342;2022-07-18T12:32:24;7.25;;;1.30;;
17987;SDS011;9119;50.932;5.342;2022-07-18T12:37:25;6.55;;;1.88;;
17987;SDS011;9119;50.932;5.342;2022-07-18T12:40:08;2.40;;;1.52;;
17987;SDS011;9119;50.932;5.342;2022-07-18T12:42:36;4.60;;;1.30;;
17987;SDS011;9119;50.932;5.342;2022-07-18T12:45:04;5.43;;;1.35;;
17987;SDS011;9119;50.932;5.342;2022-07-18T12:47:31;4.55;;;1.77;;
17987;SDS011;9119;50.932;5.342;2022-07-18T12:49:57;3.70;;;1.45;;
17987;SDS011;9119;50.932;5.342;2022-07-18T12:52:22;5.05;;;1.58;;
17987;SDS011;9119;50.932;5.342;2022-07-18T12:54:48;4.95;;;1.60;;
17987;SDS011;9119;50.932;5.342;2022-07-18T12:57:15;7.75;;;1.65;;
17987;SDS011;9119;50.932;5.342;2022-07-18T12:59:41;4.47;;;1.65;;
17987;SDS011;9119;50.932;5.342;2022-07-18T13:02:07;6.50;;;1.88;;
17987;SDS011;9119;50.932;5.342;2022-07-18T13:04:32;7.00;;;1.80;;
17987;SDS011;9119;50.932;5.342;2022-07-18T13:06:58;11.15;;;2.30;;
17987;SDS011;9119;50.932;5.342;2022-07-18T13:09:24;2.53;;;1.60;;
17987;SDS011;9119;50.932;5.342;2022-07-18T13:11:50;5.93;;;1.60;;
17987;SDS011;9119;50.932;5.342;2022-07-18T13:14:15;2.47;;;1.50;;
17987;SDS011;9119;50.932;5.342;2022-07-18T13:16:42;4.57;;;1.70;;
17987;SDS011;9119;50.932;5.342;2022-07-18T13:19:13;3.35;;;1.80;;
17987;SDS011;9119;50.932;5.342;2022-07-18T13:21:39;1.40;;;1.30;;
17987;SDS011;9119;50.932;5.342;2022-07-18T13:24:06;5.28;;;1.70;;
17987;SDS011;9119;50.932;5.342;2022-07-18T13:26:32;5.47;;;1.52;;
17987;SDS011;9119;50.932;5.342;2022-07-18T13:28:58;3.17;;;1.45;;
17987;SDS011;9119;50.932;5.342;2022-07-18T13:31:24;3.38;;;1.33;;
17987;SDS011;9119;50.932;5.342;2022-07-18T13:33:49;5.47;;;1.50;;
17987;SDS011;9119;50.932;5.342;2022-07-18T13:36:16;5.35;;;1.70;;
17987;SDS011;9119;50.932;5.342;2022-07-18T13:38:44;3.88;;;1.50;;
17987;SDS011;9119;50.932;5.342;2022-07-18T13:41:11;1.85;;;1.58;;
17987;SDS011;9119;50.932;5.342;2022-07-18T13:43:37;2.95;;;1.50;;
17987;SDS011;9119;50.932;5.342;2022-07-18T13:46:05;6.07;;;1.70;;
17987;SDS011;9119;50.932;5.342;2022-07-18T13:48:32;7.10;;;1.80;;
17987;SDS011;9119;50.932;5.342;2022-07-18T13:50:58;9.25;;;1.70;;
17987;SDS011;9119;50.932;5.342;2022-07-18T13:53:24;1.85;;;1.27;;
17987;SDS011;9119;50.932;5.342;2022-07-18T13:55:50;3.70;;;1.50;;
17987;SDS011;9119;50.932;5.342;2022-07-18T13:58:16;2.60;;;1.13;;
17987;SDS011;9119;50.932;5.342;2022-07-18T14:00:42;2.22;;;1.73;;
17987;SDS011;9119;50.932;5.342;2022-07-18T14:03:09;7.35;;;2.05;;
17987;SDS011;9119;50.932;5.342;2022-07-18T14:05:35;4.03;;;2.20;;
17987;SDS011;9119;50.932;5.342;2022-07-18T14:08:01;2.72;;;2.00;;
17987;SDS011;9119;50.932;5.342;2022-07-18T14:10:26;2.90;;;1.75;;
17987;SDS011;9119;50.932;5.342;2022-07-18T14:12:52;3.35;;;1.85;;
17987;SDS011;9119;50.932;5.342;2022-07-18T14:15:18;4.70;;;2.10;;
17987;SDS011;9119;50.932;5.342;2022-07-18T14:17:44;8.75;;;1.90;;
17987;SDS011;9119;50.932;5.342;2022-07-18T14:20:10;3.85;;;2.00;;
17987;SDS011;9119;50.932;5.342;2022-07-18T14:22:37;5.28;;;1.85;;
17987;SDS011;9119;50.932;5.342;2022-07-18T14:25:05;5.93;;;1.77;;
17987;SDS011;9119;50.932;5.342;2022-07-18T14:27:32;8.23;;;1.65;;
17987;SDS011;9119;50.932;5.342;2022-07-18T14:29:59;8.30;;;1.90;;
17987;SDS011;9119;50.932;5.342;2022-07-18T14:32:27;3.90;;;1.42;;
17987;SDS011;9119;50.932;5.342;2022-07-18T14:34:53;4.47;;;1.58;;
17987;SDS011;9119;50.932;5.342;2022-07-18T14:37:20;3.88;;;1.42;;
17987;SDS011;9119;50.932;5.342;2022-07-18T14:39:45;3.10;;;1.83;;
17987;SDS011;9119;50.932;5.342;2022-07-18T14:42:11;4.53;;;1.92;;
17987;SDS011;9119;50.932;5.342;2022-07-18T14:44:38;3.22;;;1.50;;
17987;SDS011;9119;50.932;5.342;2022-07-18T14:47:04;5.63;;;1.30;;
17987;SDS011;9119;50.932;5.342;2022-07-18T14:49:30;1.95;;;1.40;;
17987;SDS011;9119;50.932;5.342;2022-07-18T14:51:56;2.75;;;1.52;;
17987;SDS011;9119;50.932;5.342;2022-07-18T14:54:22;4.35;;;1.60;;
17987;SDS011;9119;50.932;5.342;2022-07-18T14:56:48;6.50;;;1.77;;
17987;SDS011;9119;50.932;5.342;2022-07-18T14:59:14;4.80;;;1.67;;
17987;SDS011;9119;50.932;5.342;2022-07-18T15:01:39;2.38;;;1.30;;
17987;SDS011;9119;50.932;5.342;2022-07-18T15:04:05;10.07;;;2.25;;
17987;SDS011;9119;50.932;5.342;2022-07-18T15:06:31;5.60;;;1.33;;
17987;SDS011;9119;50.932;5.342;2022-07-18T15:08:56;3.63;;;1.20;;
17987;SDS011;9119;50.932;5.342;2022-07-18T15:11:26;2.78;;;1.60;;
17987;SDS011;9119;50.932;5.342;2022-07-18T15:13:52;7.00;;;1.52;;
17987;SDS011;9119;50.932;5.342;2022-07-18T15:16:17;7.20;;;1.70;;
17987;SDS011;9119;50.932;5.342;2022-07-18T15:18:43;2.65;;;1.48;;
17987;SDS011;9119;50.932;5.342;2022-07-18T15:21:09;6.03;;;1.10;;
17987;SDS011;9119;50.932;5.342;2022-07-18T15:23:35;4.65;;;1.65;;
17987;SDS011;9119;50.932;5.342;2022-07-18T15:26:00;5.45;;;1.73;;
17987;SDS011;9119;50.932;5.342;2022-07-18T15:28:26;1.85;;;1.25;;
17987;SDS011;9119;50.932;5.342;2022-07-18T15:30:52;4.18;;;1.75;;
17987;SDS011;9119;50.932;5.342;2022-07-18T15:33:17;2.75;;;1.60;;
17987;SDS011;9119;50.932;5.342;2022-07-18T15:35:43;2.60;;;1.30;;
17987;SDS011;9119;50.932;5.342;2022-07-18T15:38:09;1.48;;;1.35;;
17987;SDS011;9119;50.932;5.342;2022-07-18T15:40:35;2.08;;;1.60;;
17987;SDS011;9119;50.932;5.342;2022-07-18T15:43:01;3.88;;;1.40;;
17987;SDS011;9119;50.932;5.342;2022-07-18T15:45:27;3.08;;;1.42;;
17987;SDS011;9119;50.932;5.342;2022-07-18T15:47:53;2.05;;;1.38;;
17987;SDS011;9119;50.932;5.342;2022-07-18T15:50:19;7.47;;;2.63;;
17987;SDS011;9119;50.932;5.342;2022-07-18T15:52:45;3.30;;;2.00;;
17987;SDS011;9119;50.932;5.342;2022-07-18T15:55:11;5.95;;;1.70;;
17987;SDS011;9119;50.932;5.342;2022-07-18T15:57:36;2.97;;;1.48;;
17987;SDS011;9119;50.932;5.342;2022-07-18T16:00:03;5.68;;;1.65;;
17987;SDS011;9119;50.932;5.342;2022-07-18T16:02:30;3.20;;;1.60;;
17987;SDS011;9119;50.932;5.342;2022-07-18T16:04:55;2.67;;;2.15;;
17987;SDS011;9119;50.932;5.342;2022-07-18T16:07:21;3.75;;;1.85;;
17987;SDS011;9119;50.932;5.342;2022-07-18T16:09:47;6.80;;;1.38;;
17987;SDS011;9119;50.932;5.342;2022-07-18T16:12:13;2.45;;;1.45;;